Time;durP1;ratioP1;P1;durP2;ratioP2;P2;SDS_P1;SDS_P2;PMS_P1;PMS_P2;Temp;Humidity;BMP_temperature;BMP_pressure;BME280_temperature;BME280_humidity;BME280_pressure;Samples;Min_cycle;Max_cycle;Signal;HPM_P1;HPM_P2
2021/04/30 00:02:21;;;;;;;42.58;33.83;;;8.20;99.90;;;;;;5020368;28;20492;-68
2021/04/30 00:04:47;;;;;;;35.78;30.40;;;8.30;99.90;;;;;;5016640;28;20049;-68
2021/04/30 00:07:19;;;;;;;41.33;31.10;;;8.20;99.90;;;;;;5017935;28;20491;-68
2021/04/30 00:09:45;;;;;;;43.53;31.35;;;8.30;99.90;;;;;;5020096;28;20606;-68
2021/04/30 00:12:11;;;;;;;38.42;30.80;;;8.20;99.90;;;;;;5018649;28;20045;-68
2021/04/30 00:14:37;;;;;;;41.22;33.95;;;8.20;99.90;;;;;;5017764;28;20049;-68
2021/04/30 00:17:04;;;;;;;47.28;35.03;;;8.20;99.90;;;;;;5021305;28;20073;-68
2021/04/30 00:19:30;;;;;;;51.22;36.45;;;8.20;99.90;;;;;;5019738;28;20056;-68
2021/04/30 00:21:55;;;;;;;39.33;30.58;;;8.20;99.90;;;;;;5020668;28;20045;-68
2021/04/30 00:24:22;;;;;;;40.83;32.38;;;8.10;99.90;;;;;;5020155;28;20042;-68
2021/04/30 00:26:48;;;;;;;39.58;32.88;;;8.10;99.90;;;;;;5021560;28;20040;-68
2021/04/30 00:29:14;;;;;;;38.88;30.23;;;8.10;99.90;;;;;;5020516;28;20041;-68
2021/04/30 00:31:42;;;;;;;36.38;28.08;;;8.10;99.90;;;;;;5020538;28;20041;-68
2021/04/30 00:34:09;;;;;;;38.55;28.70;;;8.00;99.90;;;;;;5019464;28;20047;-68
2021/04/30 00:36:35;;;;;;;42.20;30.92;;;8.00;99.90;;;;;;5019956;28;20044;-68
2021/04/30 00:39:02;;;;;;;31.70;26.40;;;8.00;99.90;;;;;;5020669;28;20041;-68
2021/04/30 00:41:28;;;;;;;37.08;27.70;;;8.00;99.90;;;;;;5020639;28;20041;-68
2021/04/30 00:43:54;;;;;;;32.17;27.02;;;8.00;99.90;;;;;;5021626;28;20042;-68
2021/04/30 00:46:20;;;;;;;31.00;27.60;;;8.00;99.90;;;;;;5018832;28;20069;-68
2021/04/30 00:48:46;;;;;;;30.42;26.13;;;8.00;99.90;;;;;;5020701;28;20045;-68
2021/04/30 00:51:12;;;;;;;35.53;27.73;;;8.00;99.90;;;;;;5021668;28;20675;-68
2021/04/30 00:53:38;;;;;;;31.10;26.92;;;7.90;99.90;;;;;;5020327;28;20037;-68
2021/04/30 00:56:04;;;;;;;36.95;30.13;;;7.90;99.90;;;;;;5020086;28;20430;-68
2021/04/30 00:58:30;;;;;;;31.92;26.92;;;7.90;99.90;;;;;;5021110;28;20045;-68
2021/04/30 01:00:56;;;;;;;34.85;28.02;;;7.90;99.90;;;;;;5020778;28;20048;-68
2021/04/30 01:03:22;;;;;;;34.22;28.35;;;7.90;99.90;;;;;;5021631;28;21711;-68
2021/04/30 01:05:48;;;;;;;27.63;24.65;;;7.80;99.90;;;;;;5019279;28;20049;-68
2021/04/30 01:08:14;;;;;;;34.75;29.98;;;7.90;99.90;;;;;;5021304;28;20033;-68
2021/04/30 01:10:39;;;;;;;29.70;26.52;;;7.90;99.90;;;;;;5019962;28;20052;-68
2021/04/30 01:13:05;;;;;;;37.28;28.83;;;7.90;99.90;;;;;;5020452;28;20037;-68
2021/04/30 01:15:31;;;;;;;31.70;26.25;;;7.90;99.90;;;;;;5019734;28;20502;-68
2021/04/30 01:17:57;;;;;;;30.58;25.73;;;8.00;99.90;;;;;;5019986;28;20045;-68
2021/04/30 01:20:22;;;;;;;28.38;23.85;;;7.90;99.90;;;;;;5019534;28;20091;-68
2021/04/30 01:22:51;;;;;;;29.38;25.75;;;7.90;99.90;;;;;;5019027;28;20427;-68
2021/04/30 01:25:20;;;;;;;35.00;28.40;;;7.90;99.90;;;;;;5019874;28;20041;-68
2021/04/30 01:27:46;;;;;;;37.20;26.20;;;7.90;99.90;;;;;;5023728;28;20044;-68
2021/04/30 01:30:17;;;;;;;30.65;24.38;;;7.90;99.90;;;;;;5039110;28;20045;-68
2021/04/30 01:32:43;;;;;;;29.98;24.52;;;8.00;99.90;;;;;;5023434;28;20091;-68
2021/04/30 01:35:11;;;;;;;27.27;22.75;;;7.90;99.90;;;;;;5021008;28;20033;-68
2021/04/30 01:37:36;;;;;;;28.98;24.17;;;8.00;99.90;;;;;;5022896;28;20045;-68
2021/04/30 01:40:26;;;;;;;29.17;23.70;;;8.00;99.90;;;;;;5021600;28;20480;-68
2021/04/30 01:43:07;;;;;;;25.25;22.88;;;8.00;99.90;;;;;;5023271;28;20049;-68
2021/04/30 01:45:55;;;;;;;31.20;23.95;;;8.00;99.90;;;;;;5023850;28;20463;-68
2021/04/30 01:48:23;;;;;;;26.85;21.90;;;8.00;99.90;;;;;;5024322;28;20033;-68
2021/04/30 01:50:50;;;;;;;25.65;22.60;;;8.00;99.90;;;;;;5038289;28;20467;-68
2021/04/30 01:53:19;;;;;;;27.75;21.25;;;8.00;99.90;;;;;;5023618;28;20112;-68
2021/04/30 01:55:45;;;;;;;27.00;22.35;;;8.00;99.90;;;;;;5024049;28;20116;-68
2021/04/30 01:58:16;;;;;;;27.73;21.63;;;7.90;99.90;;;;;;5023148;28;20084;-68
2021/04/30 02:00:43;;;;;;;24.90;22.23;;;8.00;99.90;;;;;;5019755;28;20045;-68
2021/04/30 02:03:09;;;;;;;25.88;22.02;;;8.00;99.90;;;;;;5022699;28;20041;-68
2021/04/30 02:05:35;;;;;;;29.48;23.13;;;8.10;99.90;;;;;;5022683;28;20738;-68
2021/04/30 02:08:02;;;;;;;23.67;21.23;;;8.10;99.90;;;;;;5022960;28;20102;-68
2021/04/30 02:10:28;;;;;;;30.35;21.70;;;8.10;99.90;;;;;;5022950;28;20060;-68
2021/04/30 02:12:55;;;;;;;32.10;23.27;;;8.10;99.90;;;;;;5023130;28;20128;-68
2021/04/30 02:15:23;;;;;;;22.80;19.85;;;8.10;99.90;;;;;;5020699;28;20042;-68
2021/04/30 02:17:50;;;;;;;29.80;21.40;;;8.10;99.90;;;;;;5021551;28;20046;-68
2021/04/30 02:20:17;;;;;;;32.05;21.65;;;8.10;99.90;;;;;;5022762;28;20038;-68
2021/04/30 02:22:43;;;;;;;25.23;20.63;;;8.10;99.90;;;;;;5021998;28;20095;-68
2021/04/30 02:25:11;;;;;;;25.30;20.30;;;8.10;99.90;;;;;;5023108;28;20373;-68
2021/04/30 02:27:37;;;;;;;26.30;19.00;;;8.10;99.90;;;;;;5022484;28;20124;-68
2021/04/30 02:30:09;;;;;;;28.65;19.02;;;8.10;99.90;;;;;;5022435;28;20120;-68
2021/04/30 02:32:36;;;;;;;23.08;20.23;;;8.10;99.90;;;;;;5022968;28;20139;-68
2021/04/30 02:35:09;;;;;;;22.67;19.38;;;8.10;99.90;;;;;;5025385;28;20379;-68
2021/04/30 02:37:35;;;;;;;24.77;22.15;;;8.00;99.90;;;;;;5024172;28;20044;-68
2021/04/30 02:40:00;;;;;;;22.10;19.75;;;8.10;99.90;;;;;;5022673;28;20049;-68
2021/04/30 02:42:26;;;;;;;21.13;19.02;;;8.00;99.90;;;;;;5021459;28;20048;-68
2021/04/30 02:44:52;;;;;;;22.80;20.40;;;8.00;99.90;;;;;;5023011;28;20128;-68
2021/04/30 02:47:20;;;;;;;22.38;19.13;;;8.00;99.90;;;;;;5023369;28;20174;-68
2021/04/30 02:49:46;;;;;;;25.33;19.20;;;7.90;99.90;;;;;;5022261;28;20065;-68
2021/04/30 02:52:16;;;;;;;23.75;19.63;;;7.80;99.90;;;;;;5022429;28;20049;-68
2021/04/30 02:54:44;;;;;;;22.38;20.02;;;7.80;99.90;;;;;;5022605;28;20037;-68
2021/04/30 02:57:13;;;;;;;21.88;19.45;;;7.80;99.90;;;;;;5028092;28;20048;-68
2021/04/30 02:59:38;;;;;;;22.92;19.15;;;7.80;99.90;;;;;;5024382;28;20041;-68
2021/04/30 03:02:04;;;;;;;20.88;18.25;;;7.80;99.90;;;;;;5026780;28;20099;-68
2021/04/30 03:04:30;;;;;;;22.17;18.08;;;7.80;99.90;;;;;;5028245;28;20046;-68
2021/04/30 03:06:56;;;;;;;19.73;17.83;;;7.80;99.90;;;;;;5029465;28;20045;-68
2021/04/30 03:09:22;;;;;;;24.05;18.98;;;7.80;99.90;;;;;;5026709;28;20041;-68
2021/04/30 03:11:47;;;;;;;22.42;20.05;;;7.80;99.90;;;;;;5027315;28;20590;-68
2021/04/30 03:14:13;;;;;;;23.70;18.05;;;7.80;99.90;;;;;;5027412;28;20038;-68
2021/04/30 03:16:39;;;;;;;24.08;18.98;;;7.80;99.90;;;;;;5025648;28;20040;-68
2021/04/30 03:19:05;;;;;;;19.83;17.92;;;7.70;99.90;;;;;;5028662;28;20129;-68
2021/04/30 03:21:31;;;;;;;19.80;17.65;;;7.70;99.90;;;;;;5027462;28;20047;-68
2021/04/30 03:23:57;;;;;;;20.05;17.92;;;7.70;99.90;;;;;;5019924;28;20084;-68
2021/04/30 03:26:22;;;;;;;23.98;19.60;;;7.70;99.90;;;;;;5023638;28;20488;-68
2021/04/30 03:28:48;;;;;;;20.42;18.17;;;7.70;99.90;;;;;;5026867;28;20038;-68
2021/04/30 03:31:14;;;;;;;23.65;19.63;;;7.70;99.90;;;;;;5025956;28;20470;-68
2021/04/30 03:33:40;;;;;;;24.98;18.52;;;7.70;99.90;;;;;;5026710;28;20034;-68
2021/04/30 03:36:06;;;;;;;20.75;17.40;;;7.80;99.90;;;;;;5027132;28;20068;-68
2021/04/30 03:38:33;;;;;;;22.25;20.20;;;7.80;99.90;;;;;;5025680;28;20091;-68
2021/04/30 03:40:59;;;;;;;24.70;21.00;;;7.70;99.90;;;;;;5025889;28;20454;-68
2021/04/30 03:43:25;;;;;;;23.58;20.15;;;7.80;99.90;;;;;;5024188;28;20041;-68
2021/04/30 03:45:51;;;;;;;27.05;21.40;;;7.80;99.90;;;;;;5025152;28;20372;-68
2021/04/30 03:48:21;;;;;;;24.02;21.55;;;7.80;99.90;;;;;;5024611;28;20049;-68
2021/04/30 03:50:48;;;;;;;25.52;20.92;;;7.80;99.90;;;;;;5023711;28;20112;-68
2021/04/30 03:53:14;;;;;;;23.67;21.17;;;7.80;99.90;;;;;;5021197;28;20045;-68
2021/04/30 03:55:40;;;;;;;27.73;21.83;;;7.90;99.90;;;;;;5021379;28;20092;-68
2021/04/30 03:58:06;;;;;;;31.55;20.88;;;7.90;99.90;;;;;;5022636;28;20029;-68
2021/04/30 04:00:32;;;;;;;22.17;19.90;;;7.80;99.90;;;;;;5026361;28;20037;-68
2021/04/30 04:02:57;;;;;;;22.40;20.15;;;7.90;99.90;;;;;;5024659;28;20049;-68
2021/04/30 04:05:23;;;;;;;23.15;20.73;;;7.90;99.90;;;;;;5027958;28;20072;-68
2021/04/30 04:07:49;;;;;;;21.73;19.63;;;7.90;99.90;;;;;;5023968;28;20038;-68
2021/04/30 04:10:14;;;;;;;23.85;19.58;;;7.90;99.90;;;;;;5027180;28;20878;-68
2021/04/30 04:12:40;;;;;;;28.83;20.60;;;8.00;99.90;;;;;;5026560;28;20546;-68
2021/04/30 04:15:08;;;;;;;23.85;21.33;;;8.00;99.90;;;;;;5024240;28;20038;-68
2021/04/30 04:17:35;;;;;;;21.38;19.15;;;8.00;99.90;;;;;;5026385;28;20041;-68
2021/04/30 04:20:01;;;;;;;21.65;19.08;;;8.00;99.90;;;;;;5023781;28;20374;-68
2021/04/30 04:22:26;;;;;;;22.00;19.77;;;8.00;99.90;;;;;;5027917;28;20056;-68
2021/04/30 04:24:52;;;;;;;25.45;22.80;;;8.00;99.90;;;;;;5028175;28;20038;-68
2021/04/30 04:27:18;;;;;;;25.88;19.92;;;8.10;99.90;;;;;;5025187;28;20534;-68
2021/04/30 04:29:44;;;;;;;22.48;20.13;;;8.10;99.90;;;;;;5024440;28;20530;-68
2021/04/30 04:32:10;;;;;;;20.70;18.50;;;8.10;99.90;;;;;;5026414;28;20057;-68
2021/04/30 04:34:36;;;;;;;25.65;20.30;;;8.10;99.90;;;;;;5025158;28;20470;-68
2021/04/30 04:37:02;;;;;;;23.15;18.75;;;8.10;99.90;;;;;;5024869;28;20116;-68
2021/04/30 04:39:32;;;;;;;28.27;21.70;;;8.10;99.90;;;;;;5021961;28;20038;-68
2021/04/30 04:41:59;;;;;;;26.02;20.27;;;8.10;99.90;;;;;;5023173;28;20049;-68
2021/04/30 04:44:25;;;;;;;23.17;20.88;;;8.20;99.90;;;;;;5025644;28;20139;-68
2021/04/30 04:46:50;;;;;;;24.75;20.67;;;8.20;99.90;;;;;;5024579;28;20496;-68
2021/04/30 04:49:16;;;;;;;27.85;22.52;;;8.20;99.90;;;;;;5025820;28;20061;-68
2021/04/30 04:51:42;;;;;;;26.65;20.75;;;8.30;99.90;;;;;;5023150;28;20065;-68
2021/04/30 04:54:08;;;;;;;21.23;19.20;;;8.30;99.90;;;;;;5038434;28;20392;-68
2021/04/30 04:56:34;;;;;;;22.45;20.05;;;8.30;99.90;;;;;;5023112;28;20034;-68
2021/04/30 04:59:00;;;;;;;24.30;20.05;;;8.30;99.90;;;;;;5026005;28;20041;-68
2021/04/30 05:01:29;;;;;;;27.75;20.52;;;8.30;99.90;;;;;;5016062;28;20041;-68
2021/04/30 05:03:55;;;;;;;23.98;21.40;;;8.30;99.90;;;;;;5024516;28;20420;-68
2021/04/30 05:06:21;;;;;;;21.55;19.33;;;8.30;99.90;;;;;;5025784;28;20098;-68
2021/04/30 05:08:46;;;;;;;24.48;20.13;;;8.30;99.90;;;;;;5028494;28;20033;-68
2021/04/30 05:11:12;;;;;;;29.83;21.15;;;8.40;99.90;;;;;;5027920;28;20706;-68
2021/04/30 05:13:38;;;;;;;26.80;19.83;;;8.40;99.90;;;;;;5042031;28;20391;-68
2021/04/30 05:16:07;;;;;;;27.00;19.52;;;8.50;99.90;;;;;;5027414;28;20810;-68
2021/04/30 05:18:33;;;;;;;24.83;19.40;;;8.50;99.90;;;;;;5023628;28;20037;-68
2021/04/30 05:20:59;;;;;;;28.95;21.30;;;8.40;99.90;;;;;;5027537;28;20048;-68
2021/04/30 05:23:25;;;;;;;28.35;19.40;;;8.50;99.90;;;;;;5026409;28;20547;-68
2021/04/30 05:25:55;;;;;;;30.65;21.60;;;8.60;99.90;;;;;;5029177;28;20068;-68
2021/04/30 05:28:21;;;;;;;24.40;19.98;;;8.60;99.90;;;;;;5026467;28;20128;-68
2021/04/30 05:30:47;;;;;;;26.75;20.48;;;8.60;99.90;;;;;;5025763;28;20511;-68
2021/04/30 05:33:13;;;;;;;28.70;20.30;;;8.60;99.90;;;;;;5025630;28;20064;-68
2021/04/30 05:35:38;;;;;;;29.40;19.70;;;8.60;99.90;;;;;;5027779;28;20045;-68
2021/04/30 05:38:05;;;;;;;29.02;19.02;;;8.60;99.90;;;;;;5024552;28;20691;-68
2021/04/30 05:40:32;;;;;;;25.83;20.63;;;8.70;99.90;;;;;;5026013;28;20509;-68
2021/04/30 05:42:58;;;;;;;24.15;20.35;;;8.70;99.90;;;;;;5025354;28;20033;-68
2021/04/30 05:45:24;;;;;;;30.30;21.40;;;8.70;99.90;;;;;;5026429;28;20166;-68
2021/04/30 05:47:49;;;;;;;25.85;18.58;;;8.70;99.90;;;;;;5023271;28;20099;-68
2021/04/30 05:50:15;;;;;;;37.20;21.35;;;8.70;99.90;;;;;;5022300;28;20041;-68
2021/04/30 05:52:41;;;;;;;27.75;19.77;;;8.70;99.90;;;;;;5020670;28;20116;-68
2021/04/30 05:55:08;;;;;;;27.20;18.95;;;8.80;99.90;;;;;;5026190;28;20065;-68
2021/04/30 05:57:35;;;;;;;26.80;18.70;;;8.80;99.90;;;;;;5029072;28;20675;-68
2021/04/30 06:00:00;;;;;;;24.00;19.52;;;8.80;99.90;;;;;;5030145;28;20091;-68
2021/04/30 06:02:26;;;;;;;27.50;19.25;;;8.80;99.90;;;;;;5028402;28;20450;-68
2021/04/30 06:04:53;;;;;;;29.33;20.42;;;8.80;99.90;;;;;;5029742;28;21777;-68
2021/04/30 06:07:19;;;;;;;25.40;19.20;;;8.80;99.90;;;;;;5028317;28;20499;-68
2021/04/30 06:09:44;;;;;;;26.33;19.55;;;8.90;99.90;;;;;;5024087;28;20052;-68
2021/04/30 06:12:10;;;;;;;29.23;20.20;;;8.80;99.90;;;;;;5024977;28;20045;-68
2021/04/30 06:14:36;;;;;;;42.53;20.30;;;9.10;99.90;;;;;;5030162;28;20109;-68
2021/04/30 06:17:02;;;;;;;27.52;19.88;;;8.90;99.90;;;;;;5028877;28;20060;-68
2021/04/30 06:19:28;;;;;;;29.15;18.20;;;9.00;99.90;;;;;;5025243;28;20096;-68
2021/04/30 06:21:54;;;;;;;25.40;19.95;;;8.90;99.90;;;;;;5029468;28;20038;-68
2021/04/30 06:24:21;;;;;;;24.98;18.70;;;8.90;99.90;;;;;;5027493;28;20075;-68
2021/04/30 06:26:47;;;;;;;27.98;20.05;;;9.00;99.90;;;;;;5028050;28;20395;-68
2021/04/30 06:29:13;;;;;;;33.50;20.20;;;9.00;99.90;;;;;;5023552;28;20033;-68
2021/04/30 06:31:39;;;;;;;33.72;22.73;;;9.10;99.90;;;;;;5023985;28;20041;-68
2021/04/30 06:34:05;;;;;;;28.15;18.95;;;9.00;99.90;;;;;;5025140;28;20080;-68
2021/04/30 06:36:32;;;;;;;32.38;20.80;;;9.00;99.90;;;;;;5025179;28;20041;-68
2021/04/30 06:38:58;;;;;;;32.17;21.60;;;9.00;99.90;;;;;;5023298;28;20063;-67
2021/04/30 06:41:24;;;;;;;30.67;19.77;;;9.00;99.90;;;;;;5024546;28;20052;-67
2021/04/30 06:43:50;;;;;;;26.02;19.88;;;9.00;99.90;;;;;;5027695;28;20033;-68
2021/04/30 06:46:16;;;;;;;28.00;20.80;;;9.10;99.90;;;;;;5024667;28;20091;-67
2021/04/30 06:48:41;;;;;;;25.27;18.70;;;9.10;99.90;;;;;;5022582;28;20038;-67
2021/04/30 06:51:07;;;;;;;29.52;20.63;;;9.10;99.90;;;;;;5025307;28;20664;-67
2021/04/30 06:53:32;;;;;;;29.13;20.92;;;9.10;99.90;;;;;;5027110;28;21043;-67
2021/04/30 06:55:59;;;;;;;31.42;20.23;;;9.20;99.90;;;;;;5022928;28;20049;-68
2021/04/30 06:58:25;;;;;;;32.60;22.83;;;9.10;99.90;;;;;;5026613;28;20049;-67
2021/04/30 07:00:51;;;;;;;38.28;21.60;;;9.20;99.90;;;;;;5024472;28;20041;-68
2021/04/30 07:03:17;;;;;;;27.25;20.48;;;9.30;99.90;;;;;;5026887;28;20042;-68
2021/04/30 07:05:43;;;;;;;35.97;19.88;;;9.30;99.90;;;;;;5018861;28;20487;-68
2021/04/30 07:08:09;;;;;;;32.65;18.88;;;9.30;99.90;;;;;;5021805;28;20084;-68
2021/04/30 07:10:35;;;;;;;37.78;21.95;;;9.30;99.90;;;;;;5025747;28;20025;-68
2021/04/30 07:13:09;;;;;;;36.33;21.77;;;9.30;99.90;;;;;;5025191;28;20048;-68
2021/04/30 07:15:35;;;;;;;35.50;19.35;;;9.30;99.90;;;;;;5023928;28;20033;-68
2021/04/30 07:18:01;;;;;;;32.65;20.13;;;9.30;99.90;;;;;;5022839;28;20694;-68
2021/04/30 07:20:27;;;;;;;34.53;19.60;;;9.20;99.90;;;;;;5024916;28;20047;-68
2021/04/30 07:22:52;;;;;;;28.33;18.63;;;9.20;99.90;;;;;;5024686;28;20468;-68
2021/04/30 07:25:18;;;;;;;29.55;18.48;;;9.20;99.90;;;;;;5025039;28;20037;-68
2021/04/30 07:27:44;;;;;;;31.52;18.98;;;9.30;99.90;;;;;;5025264;28;20412;-68
2021/04/30 07:30:10;;;;;;;33.35;16.58;;;9.30;99.90;;;;;;5025500;28;20049;-68
2021/04/30 07:32:36;;;;;;;28.33;17.10;;;9.40;99.90;;;;;;5023980;28;20622;-67
2021/04/30 07:35:03;;;;;;;35.55;20.75;;;9.40;99.90;;;;;;5025791;28;20045;-68
2021/04/30 07:37:29;;;;;;;33.63;19.17;;;9.40;99.90;;;;;;5025581;28;20414;-67
2021/04/30 07:39:54;;;;;;;28.50;17.65;;;9.50;99.90;;;;;;5024968;28;20052;-67
2021/04/30 07:42:20;;;;;;;33.38;18.48;;;9.50;99.90;;;;;;5025345;28;20033;-67
2021/04/30 07:44:47;;;;;;;33.53;18.80;;;9.50;99.90;;;;;;5025830;28;20044;-68
2021/04/30 07:47:13;;;;;;;32.70;18.92;;;9.50;99.90;;;;;;5024068;28;20187;-67
2021/04/30 07:49:39;;;;;;;37.88;21.73;;;9.60;99.90;;;;;;5025168;28;20052;-67
2021/04/30 07:52:05;;;;;;;42.80;20.05;;;9.60;99.90;;;;;;5027951;28;20041;-67
2021/04/30 07:54:31;;;;;;;33.33;19.20;;;9.60;99.90;;;;;;5026157;28;20041;-67
2021/04/30 07:56:57;;;;;;;32.00;19.33;;;9.60;99.90;;;;;;5021070;28;20045;-67
2021/04/30 07:59:23;;;;;;;27.33;18.33;;;9.70;99.90;;;;;;5027425;28;20114;-67
2021/04/30 08:01:48;;;;;;;34.83;19.67;;;9.70;99.90;;;;;;5026064;28;20042;-67
2021/04/30 08:04:14;;;;;;;29.98;17.52;;;9.70;99.90;;;;;;5026212;28;20693;-67
2021/04/30 08:06:40;;;;;;;24.77;17.30;;;9.70;99.90;;;;;;5027543;28;20107;-67
2021/04/30 08:09:06;;;;;;;26.00;16.00;;;9.70;99.90;;;;;;5026106;28;20044;-67
2021/04/30 08:11:34;;;;;;;40.70;20.02;;;9.70;99.90;;;;;;5026702;28;20048;-67
2021/04/30 08:14:01;;;;;;;29.02;18.42;;;9.70;99.90;;;;;;5027636;28;20036;-67
2021/04/30 08:16:27;;;;;;;28.50;16.80;;;9.80;99.90;;;;;;5027201;28;20761;-67
2021/04/30 08:18:52;;;;;;;22.63;15.23;;;9.90;99.90;;;;;;5025068;28;20088;-67
2021/04/30 08:21:18;;;;;;;19.83;13.82;;;10.10;99.90;;;;;;5026830;28;20091;-67
2021/04/30 08:23:44;;;;;;;21.80;14.57;;;10.30;99.90;;;;;;5028975;28;20050;-67
2021/04/30 08:26:09;;;;;;;24.25;14.05;;;10.40;99.90;;;;;;5026511;28;20618;-67
2021/04/30 08:28:35;;;;;;;19.27;12.55;;;10.50;99.90;;;;;;5026871;28;20385;-67
2021/04/30 08:31:01;;;;;;;21.83;12.40;;;10.60;99.90;;;;;;5026135;28;20369;-67
2021/04/30 08:33:27;;;;;;;16.85;11.65;;;10.60;99.90;;;;;;5026257;28;20069;-67
2021/04/30 08:35:53;;;;;;;17.83;12.10;;;10.60;99.90;;;;;;5028890;28;20033;-67
2021/04/30 08:38:19;;;;;;;18.65;12.20;;;10.60;99.90;;;;;;5030759;28;20034;-67
2021/04/30 08:40:47;;;;;;;21.00;12.23;;;10.70;99.90;;;;;;5029456;28;20515;-67
2021/04/30 08:43:18;;;;;;;15.93;12.65;;;10.70;99.90;;;;;;5028688;28;20055;-67
2021/04/30 08:45:44;;;;;;;24.02;12.98;;;10.80;99.90;;;;;;5029279;28;20053;-67
2021/04/30 08:48:15;;;;;;;31.02;13.20;;;10.80;99.90;;;;;;5030194;28;20041;-67
2021/04/30 08:50:41;;;;;;;16.75;10.70;;;10.90;99.90;;;;;;5027974;28;20438;-67
2021/04/30 08:53:07;;;;;;;16.70;10.40;;;10.90;99.90;;;;;;5026094;28;20075;-67
2021/04/30 08:55:33;;;;;;;18.02;11.32;;;11.00;99.90;;;;;;5030009;28;20460;-67
2021/04/30 08:58:04;;;;;;;14.63;10.27;;;11.00;99.80;;;;;;5030266;28;20076;-67
2021/04/30 09:00:31;;;;;;;18.23;10.63;;;11.00;99.60;;;;;;5027937;28;20045;-67
2021/04/30 09:02:57;;;;;;;14.70;10.07;;;11.10;99.30;;;;;;5025355;28;20160;-67
2021/04/30 09:05:30;;;;;;;12.30;8.77;;;11.20;99.20;;;;;;5025910;28;20124;-67
2021/04/30 09:07:58;;;;;;;15.10;11.00;;;11.20;98.70;;;;;;5029448;28;20106;-67
2021/04/30 09:10:25;;;;;;;13.55;9.75;;;11.10;98.40;;;;;;5030084;28;20067;-67
2021/04/30 09:13:06;;;;;;;14.07;10.10;;;11.20;98.80;;;;;;5029702;28;20041;-67
2021/04/30 09:15:33;;;;;;;14.40;11.25;;;11.40;99.30;;;;;;5026666;28;20111;-67
2021/04/30 09:18:19;;;;;;;16.55;9.70;;;11.40;99.40;;;;;;5027341;28;20033;-67
2021/04/30 09:20:45;;;;;;;14.32;8.20;;;11.60;99.00;;;;;;5028232;28;20048;-67
2021/04/30 09:23:43;;;;;;;12.10;8.75;;;11.60;98.50;;;;;;5028066;28;20116;-67
2021/04/30 09:26:23;;;;;;;15.20;10.07;;;11.60;98.10;;;;;;5026730;28;20033;-67
2021/04/30 09:29:03;;;;;;;13.60;9.98;;;11.70;98.10;;;;;;5028635;28;20144;-67
2021/04/30 09:31:48;;;;;;;13.15;8.77;;;11.80;97.50;;;;;;5026232;28;20041;-67
2021/04/30 09:34:35;;;;;;;13.73;8.33;;;11.80;97.10;;;;;;5028281;28;20479;-67
2021/04/30 09:37:11;;;;;;;11.65;7.68;;;11.80;96.60;;;;;;5028888;28;20072;-67
2021/04/30 09:40:07;;;;;;;14.55;7.70;;;11.70;96.20;;;;;;5028357;28;20043;-67
2021/04/30 09:42:36;;;;;;;12.70;8.38;;;11.70;96.00;;;;;;5017287;28;20053;-67
2021/04/30 09:45:07;;;;;;;12.30;7.85;;;11.60;96.00;;;;;;5026607;28;20041;-67
2021/04/30 09:47:37;;;;;;;10.77;8.10;;;11.50;96.10;;;;;;5027675;28;20140;-67
2021/04/30 09:50:22;;;;;;;15.73;8.82;;;11.50;96.20;;;;;;5029194;28;20411;-67
2021/04/30 09:52:56;;;;;;;13.38;7.57;;;11.50;96.40;;;;;;5028466;28;20045;-67
2021/04/30 09:55:22;;;;;;;15.30;8.88;;;11.50;95.60;;;;;;5027381;28;20049;-67
2021/04/30 09:57:50;;;;;;;13.23;8.75;;;11.60;95.50;;;;;;5028950;28;20029;-67
2021/04/30 10:00:17;;;;;;;10.70;8.10;;;11.60;95.60;;;;;;5028168;28;20041;-67
2021/04/30 10:02:45;;;;;;;12.43;8.20;;;11.70;95.80;;;;;;5026681;28;20558;-67
2021/04/30 10:05:22;;;;;;;11.68;8.68;;;11.70;96.10;;;;;;5028307;28;20566;-67
2021/04/30 10:07:48;;;;;;;9.93;7.75;;;11.80;95.80;;;;;;5028517;28;20072;-67
2021/04/30 10:10:16;;;;;;;10.40;7.63;;;11.90;95.70;;;;;;5025166;28;20404;-67
2021/04/30 10:12:44;;;;;;;10.35;7.28;;;11.90;95.00;;;;;;5024075;28;20423;-67
2021/04/30 10:15:11;;;;;;;11.27;6.93;;;12.00;94.10;;;;;;5027914;28;20037;-67
2021/04/30 10:17:38;;;;;;;13.70;8.30;;;12.00;93.50;;;;;;5028539;28;20156;-67
2021/04/30 10:20:11;;;;;;;9.45;7.68;;;12.00;93.70;;;;;;5027059;28;20044;-67
2021/04/30 10:22:41;;;;;;;13.95;9.38;;;12.00;94.00;;;;;;5028357;28;20044;-67
2021/04/30 10:25:14;;;;;;;11.73;9.02;;;12.00;94.00;;;;;;5028583;28;20045;-67
2021/04/30 10:27:43;;;;;;;12.30;9.18;;;12.00;94.10;;;;;;5027908;28;20493;-67
2021/04/30 10:30:35;;;;;;;8.45;6.75;;;11.90;94.30;;;;;;5027485;28;20116;-67
2021/04/30 10:33:29;;;;;;;11.43;8.90;;;11.80;92.70;;;;;;5025343;28;20044;-67
2021/04/30 10:36:15;;;;;;;9.75;7.30;;;11.80;94.50;;;;;;5025171;28;20546;-67
2021/04/30 10:38:47;;;;;;;9.52;7.93;;;11.90;93.40;;;;;;5027996;28;20064;-67
2021/04/30 10:41:14;;;;;;;9.52;8.18;;;12.00;93.20;;;;;;5028084;28;20504;-67
2021/04/30 10:43:40;;;;;;;11.65;8.93;;;12.10;93.00;;;;;;5026267;28;20970;-67
2021/04/30 10:46:20;;;;;;;14.07;8.55;;;12.20;93.30;;;;;;5025786;28;20036;-67
2021/04/30 10:49:07;;;;;;;13.73;8.27;;;12.40;93.40;;;;;;5023560;28;20045;-67
2021/04/30 10:51:35;;;;;;;9.80;8.35;;;12.50;92.40;;;;;;5027544;28;20098;-67
2021/04/30 10:54:37;;;;;;;10.32;9.02;;;12.50;92.20;;;;;;5029215;28;20131;-67
2021/04/30 10:57:11;;;;;;;13.25;9.02;;;12.80;93.00;;;;;;5007734;28;20049;-67
2021/04/30 10:59:37;;;;;;;11.30;8.30;;;13.10;93.10;;;;;;5025830;28;20503;-67
2021/04/30 11:02:23;;;;;;;12.75;9.68;;;13.20;92.00;;;;;;5031688;28;20041;-67
2021/04/30 11:05:07;;;;;;;13.77;10.23;;;13.30;91.90;;;;;;5030885;28;20048;-67
2021/04/30 11:07:46;;;;;;;12.52;9.98;;;13.50;92.50;;;;;;5027222;28;20434;-68
2021/04/30 11:10:31;;;;;;;12.18;8.63;;;13.70;92.30;;;;;;5029957;28;20053;-67
2021/04/30 11:12:59;;;;;;;17.58;10.20;;;13.90;92.40;;;;;;5027471;28;20052;-67
2021/04/30 11:15:26;;;;;;;11.40;9.40;;;14.20;91.90;;;;;;5026460;28;20091;-68
2021/04/30 11:18:03;;;;;;;11.60;8.20;;;14.50;91.00;;;;;;5027887;28;20044;-68
2021/04/30 11:20:34;;;;;;;8.65;7.78;;;14.80;90.00;;;;;;5025814;28;20539;-67
2021/04/30 11:23:21;;;;;;;9.50;8.50;;;14.90;89.10;;;;;;5027474;28;20479;-68
2021/04/30 11:25:59;;;;;;;11.35;8.13;;;14.70;88.00;;;;;;5025989;28;20045;-68
2021/04/30 11:28:31;;;;;;;12.88;8.43;;;14.70;86.10;;;;;;5025341;28;20037;-67
2021/04/30 11:31:01;;;;;;;12.18;9.00;;;14.70;85.00;;;;;;5022053;28;20530;-67
2021/04/30 11:34:12;;;;;;;11.00;8.40;;;14.40;85.60;;;;;;5035314;28;20053;-67
2021/04/30 11:36:43;;;;;;;8.32;7.53;;;14.10;85.30;;;;;;5023424;28;20128;-67
2021/04/30 11:39:15;;;;;;;11.00;9.43;;;13.90;86.70;;;;;;5024611;28;20099;-67
2021/04/30 11:41:42;;;;;;;13.23;9.18;;;13.80;88.00;;;;;;5025550;28;20048;-67
2021/04/30 11:44:09;;;;;;;11.98;9.52;;;13.70;88.90;;;;;;5021772;28;20046;-67
2021/04/30 11:46:35;;;;;;;15.32;9.38;;;13.70;89.60;;;;;;5024672;28;20061;-67
2021/04/30 11:49:02;;;;;;;12.07;9.43;;;13.70;88.90;;;;;;5019766;28;20407;-67
2021/04/30 11:51:28;;;;;;;11.90;9.60;;;13.70;89.20;;;;;;5020025;28;21359;-67
2021/04/30 11:53:59;;;;;;;12.60;9.45;;;13.60;88.50;;;;;;5018991;28;20131;-67
2021/04/30 11:56:32;;;;;;;11.15;9.10;;;13.50;88.00;;;;;;5018498;28;20474;-67
2021/04/30 11:58:58;;;;;;;10.32;9.15;;;13.50;88.60;;;;;;5019517;28;20060;-67
2021/04/30 12:01:29;;;;;;;13.82;10.05;;;13.50;89.40;;;;;;5017474;28;20034;-67
2021/04/30 12:03:56;;;;;;;12.48;9.40;;;13.50;90.10;;;;;;5020804;28;20053;-67
2021/04/30 12:06:24;;;;;;;10.57;9.48;;;13.40;90.40;;;;;;5020586;28;20033;-67
2021/04/30 12:08:54;;;;;;;9.88;8.93;;;13.20;89.80;;;;;;5019484;28;20492;-68
2021/04/30 12:11:38;;;;;;;12.52;9.63;;;13.10;90.10;;;;;;5021053;28;20072;-67
2021/04/30 12:14:06;;;;;;;11.25;9.95;;;13.00;90.10;;;;;;5026707;28;20060;-67
2021/04/30 12:16:32;;;;;;;11.05;9.70;;;12.90;90.70;;;;;;5024865;28;20099;-69
2021/04/30 12:18:58;;;;;;;11.35;9.23;;;12.90;91.40;;;;;;5020822;28;20408;-70
2021/04/30 12:21:25;;;;;;;12.02;9.55;;;12.80;91.70;;;;;;5017040;28;20041;-70
2021/04/30 12:23:51;;;;;;;11.85;10.07;;;12.80;91.50;;;;;;5017497;28;20045;-70
2021/04/30 12:26:25;;;;;;;11.77;9.93;;;12.80;91.90;;;;;;5019954;28;20096;-70
2021/04/30 12:28:50;;;;;;;11.57;9.60;;;12.70;91.60;;;;;;5019881;28;20037;-71
2021/04/30 12:31:16;;;;;;;11.07;9.98;;;12.60;91.40;;;;;;5019309;28;20554;-69
2021/04/30 12:33:47;;;;;;;13.10;9.80;;;12.40;91.20;;;;;;5019600;28;20045;-69
2021/04/30 12:36:24;;;;;;;12.85;10.98;;;12.30;91.60;;;;;;5020387;28;20044;-69
2021/04/30 12:38:55;;;;;;;16.23;12.73;;;12.20;92.10;;;;;;5018192;28;20059;-69
2021/04/30 12:41:30;;;;;;;15.70;12.68;;;12.10;93.00;;;;;;5018242;28;20046;-70
2021/04/30 12:43:58;;;;;;;19.85;13.70;;;12.20;94.30;;;;;;5018936;28;20042;-70